Time;durP1;ratioP1;P1;durP2;ratioP2;P2;SDS_P1;SDS_P2;PMS_P1;PMS_P2;Temp;Humidity;BMP_temperature;BMP_pressure;BME280_temperature;BME280_humidity;BME280_pressure;Samples;Min_cycle;Max_cycle;Signal;HPM_P1;HPM_P2
2021/05/13 00:00:34;;;;;;;0.80;0.57;;;;;;;;;;5119586;28;20287;-74
2021/05/13 00:03:01;;;;;;;0.90;0.80;;;;;;;;;;5119791;28;20761;-73
2021/05/13 00:05:29;;;;;;;1.00;0.80;;;;;;;;;;5119931;28;20629;-74
2021/05/13 00:07:56;;;;;;;0.60;0.60;;;;;;;;;;5119582;27;20228;-73
2021/05/13 00:10:25;;;;;;;0.63;0.63;;;;;;;;;;5119410;28;20672;-74
2021/05/13 00:12:56;;;;;;;0.57;0.50;;;;;;;;;;5119542;28;20200;-73
2021/05/13 00:15:24;;;;;;;0.63;0.63;;;;;;;;;;5119301;28;20232;-73
2021/05/13 00:17:53;;;;;;;1.00;1.00;;;;;;;;;;5119302;28;20291;-73
2021/05/13 00:20:21;;;;;;;0.67;0.67;;;;;;;;;;5119526;28;20206;-73
2021/05/13 00:22:49;;;;;;;1.77;0.70;;;;;;;;;;5119224;28;20719;-74
2021/05/13 00:25:16;;;;;;;1.57;0.73;;;;;;;;;;5119293;28;20225;-74
2021/05/13 00:27:44;;;;;;;0.77;0.60;;;;;;;;;;5119278;28;20668;-74
2021/05/13 00:30:12;;;;;;;0.67;0.67;;;;;;;;;;5118709;28;20209;-73
2021/05/13 00:32:40;;;;;;;2.43;0.70;;;;;;;;;;5118767;28;20327;-73
2021/05/13 00:35:10;;;;;;;1.73;0.93;;;;;;;;;;5118743;28;20337;-73
2021/05/13 00:37:37;;;;;;;0.67;0.60;;;;;;;;;;5119523;28;20288;-73
2021/05/13 00:40:06;;;;;;;1.23;1.00;;;;;;;;;;5119103;28;20288;-73
2021/05/13 00:42:33;;;;;;;0.50;0.50;;;;;;;;;;5119151;28;20287;-73
2021/05/13 00:45:01;;;;;;;1.70;0.53;;;;;;;;;;5118607;28;20296;-73
2021/05/13 00:47:29;;;;;;;1.50;0.47;;;;;;;;;;5118764;28;20639;-73
2021/05/13 00:49:56;;;;;;;0.93;0.57;;;;;;;;;;5118851;27;20260;-73
2021/05/13 00:52:25;;;;;;;0.50;0.50;;;;;;;;;;5119084;28;20212;-73
2021/05/13 00:54:52;;;;;;;0.80;0.50;;;;;;;;;;5118797;28;20225;-73
2021/05/13 00:57:21;;;;;;;0.47;0.47;;;;;;;;;;5118823;28;20207;-73
2021/05/13 00:59:52;;;;;;;1.27;0.50;;;;;;;;;;5118623;28;20201;-73
2021/05/13 01:02:20;;;;;;;0.20;0.20;;;;;;;;;;5118712;28;20296;-73
2021/05/13 01:04:47;;;;;;;0.30;0.30;;;;;;;;;;5118572;28;20260;-73
2021/05/13 01:07:15;;;;;;;0.33;0.33;;;;;;;;;;5118852;28;20291;-73
2021/05/13 01:09:44;;;;;;;0.50;0.40;;;;;;;;;;5119256;28;20242;-74
2021/05/13 01:12:15;;;;;;;0.33;0.23;;;;;;;;;;5114925;28;20316;-73
2021/05/13 01:14:45;;;;;;;2.03;0.70;;;;;;;;;;5106691;28;20295;-73
2021/05/13 01:17:20;;;;;;;0.40;0.40;;;;;;;;;;5118056;28;20718;-73
2021/05/13 01:19:50;;;;;;;0.73;0.40;;;;;;;;;;5118320;28;20609;-73
2021/05/13 01:22:19;;;;;;;1.03;0.40;;;;;;;;;;5118273;28;20196;-73
2021/05/13 01:24:48;;;;;;;2.20;0.40;;;;;;;;;;5118236;28;20308;-72
2021/05/13 01:27:17;;;;;;;1.40;0.63;;;;;;;;;;5118147;28;20269;-72
2021/05/13 01:29:47;;;;;;;0.40;0.40;;;;;;;;;;5118199;27;20208;-68
2021/05/13 01:32:15;;;;;;;1.07;0.40;;;;;;;;;;5117839;28;20243;-69
2021/05/13 01:34:43;;;;;;;0.40;0.40;;;;;;;;;;5118253;28;20226;-70
2021/05/13 01:37:10;;;;;;;0.90;0.43;;;;;;;;;;5117915;28;20575;-69
2021/05/13 01:39:39;;;;;;;2.83;0.50;;;;;;;;;;5118449;28;20200;-69
2021/05/13 01:42:07;;;;;;;2.43;0.67;;;;;;;;;;5118517;28;20205;-69
2021/05/13 01:44:35;;;;;;;1.47;0.50;;;;;;;;;;5119293;28;20232;-69
2021/05/13 01:47:02;;;;;;;0.60;0.60;;;;;;;;;;5121774;28;20638;-70
2021/05/13 01:49:33;;;;;;;0.50;0.50;;;;;;;;;;5122437;28;20204;-69
2021/05/13 01:52:00;;;;;;;0.93;0.50;;;;;;;;;;5108676;28;20276;-69
2021/05/13 01:54:28;;;;;;;0.73;0.67;;;;;;;;;;5122340;28;20273;-70
2021/05/13 01:57:01;;;;;;;0.60;0.60;;;;;;;;;;5122237;28;20205;-69
2021/05/13 01:59:29;;;;;;;0.80;0.40;;;;;;;;;;5122203;27;20296;-69
2021/05/13 02:01:57;;;;;;;0.70;0.40;;;;;;;;;;5121693;28;20287;-69
2021/05/13 02:04:25;;;;;;;0.87;0.53;;;;;;;;;;5121717;28;20615;-69
2021/05/13 02:06:53;;;;;;;2.07;0.70;;;;;;;;;;5120838;28;20735;-68
2021/05/13 02:09:22;;;;;;;0.53;0.50;;;;;;;;;;5109773;28;20197;-68
2021/05/13 02:11:49;;;;;;;0.50;0.50;;;;;;;;;;5121742;28;20274;-68
2021/05/13 02:14:17;;;;;;;2.50;0.57;;;;;;;;;;5122397;28;20672;-71
2021/05/13 02:16:45;;;;;;;0.50;0.40;;;;;;;;;;5122083;27;20240;-71
2021/05/13 02:19:12;;;;;;;2.43;0.60;;;;;;;;;;5122325;27;20213;-71
2021/05/13 02:21:40;;;;;;;1.60;0.57;;;;;;;;;;5121761;28;20291;-71
2021/05/13 02:24:08;;;;;;;0.80;0.60;;;;;;;;;;5111872;28;20307;-71
2021/05/13 02:26:36;;;;;;;1.70;0.60;;;;;;;;;;5121781;28;20201;-71
2021/05/13 02:29:03;;;;;;;0.50;0.50;;;;;;;;;;5121470;28;20308;-70
2021/05/13 02:31:32;;;;;;;2.33;0.50;;;;;;;;;;5121184;27;20244;-70
2021/05/13 02:34:00;;;;;;;2.17;0.40;;;;;;;;;;5121299;28;20660;-70
2021/05/13 02:36:27;;;;;;;2.03;0.50;;;;;;;;;;5121194;28;20300;-70
2021/05/13 02:38:54;;;;;;;0.33;0.33;;;;;;;;;;5121497;28;20284;-71
2021/05/13 02:41:22;;;;;;;1.10;0.57;;;;;;;;;;5118306;28;20242;-71
2021/05/13 02:43:49;;;;;;;0.77;0.40;;;;;;;;;;5121363;28;20228;-71
2021/05/13 02:46:17;;;;;;;1.33;0.60;;;;;;;;;;5121213;28;20309;-70
2021/05/13 02:48:45;;;;;;;1.40;0.50;;;;;;;;;;5121117;28;20571;-71
2021/05/13 02:51:13;;;;;;;0.77;0.70;;;;;;;;;;5121315;28;20207;-70
2021/05/13 02:53:40;;;;;;;1.47;0.57;;;;;;;;;;5121241;27;20335;-70
2021/05/13 02:56:08;;;;;;;2.37;0.77;;;;;;;;;;5120009;28;20220;-70
2021/05/13 02:58:35;;;;;;;1.40;0.60;;;;;;;;;;5111598;27;20283;-70
2021/05/13 03:01:10;;;;;;;2.60;2.37;;;;;;;;;;5120724;28;20212;-70
2021/05/13 03:03:38;;;;;;;2.80;0.90;;;;;;;;;;5120916;28;20291;-70
2021/05/13 03:06:06;;;;;;;2.33;1.00;;;;;;;;;;5120620;28;20224;-69
2021/05/13 03:08:35;;;;;;;1.50;0.67;;;;;;;;;;5120702;28;20247;-70
2021/05/13 03:11:02;;;;;;;0.70;0.43;;;;;;;;;;5120471;28;20315;-68
2021/05/13 03:13:30;;;;;;;0.70;0.53;;;;;;;;;;5120706;28;20268;-69
2021/05/13 03:15:57;;;;;;;3.13;0.67;;;;;;;;;;5120381;28;20303;-70
2021/05/13 03:18:27;;;;;;;1.07;0.97;;;;;;;;;;5121435;28;20265;-70
2021/05/13 03:20:59;;;;;;;1.00;0.50;;;;;;;;;;5120861;28;20259;-71
2021/05/13 03:23:32;;;;;;;1.50;0.60;;;;;;;;;;5120624;27;20208;-71
2021/05/13 03:26:02;;;;;;;4.83;0.80;;;;;;;;;;5120209;28;20283;-70
2021/05/13 03:28:29;;;;;;;0.93;0.70;;;;;;;;;;5120173;27;20200;-71
2021/05/13 03:30:57;;;;;;;1.17;0.47;;;;;;;;;;5120019;28;20208;-71
2021/05/13 03:33:25;;;;;;;0.70;0.50;;;;;;;;;;5120172;28;20263;-71
2021/05/13 03:35:53;;;;;;;1.77;0.50;;;;;;;;;;5120413;28;20217;-70
2021/05/13 03:38:20;;;;;;;0.93;0.80;;;;;;;;;;5120309;28;20236;-70
2021/05/13 03:40:49;;;;;;;3.83;0.63;;;;;;;;;;5120301;28;20204;-71
2021/05/13 03:43:16;;;;;;;2.27;0.30;;;;;;;;;;5120135;28;20288;-70
2021/05/13 03:45:44;;;;;;;0.80;0.40;;;;;;;;;;5119717;28;20747;-70
2021/05/13 03:48:11;;;;;;;2.53;0.70;;;;;;;;;;5119809;28;20250;-71
2021/05/13 03:50:40;;;;;;;3.50;0.80;;;;;;;;;;5120601;28;20629;-70
2021/05/13 03:53:08;;;;;;;1.43;0.50;;;;;;;;;;5120910;28;20249;-70
2021/05/13 03:55:35;;;;;;;1.20;0.50;;;;;;;;;;5119857;28;20644;-70
2021/05/13 03:58:05;;;;;;;4.20;0.73;;;;;;;;;;5119899;28;20204;-71
2021/05/13 04:00:40;;;;;;;0.77;0.67;;;;;;;;;;5119805;28;20243;-70
2021/05/13 04:03:07;;;;;;;0.70;0.60;;;;;;;;;;5119671;28;20664;-70
2021/05/13 04:05:36;;;;;;;1.43;0.60;;;;;;;;;;5119419;28;20312;-71
2021/05/13 04:08:03;;;;;;;1.47;0.90;;;;;;;;;;5119760;27;20236;-71
2021/05/13 04:10:31;;;;;;;0.83;0.40;;;;;;;;;;5119346;28;20239;-71
2021/05/13 04:13:01;;;;;;;2.93;0.67;;;;;;;;;;5119571;28;20232;-71
2021/05/13 04:15:50;;;;;;;2.17;0.50;;;;;;;;;;5118897;27;20259;-70
2021/05/13 04:18:17;;;;;;;1.33;0.60;;;;;;;;;;5119702;28;20292;-71
2021/05/13 04:20:45;;;;;;;1.50;1.10;;;;;;;;;;5119277;28;20287;-71
2021/05/13 04:23:12;;;;;;;1.07;0.60;;;;;;;;;;5120215;28;20205;-71
2021/05/13 04:25:40;;;;;;;1.73;0.60;;;;;;;;;;5119447;28;20224;-71
2021/05/13 04:28:07;;;;;;;1.03;0.70;;;;;;;;;;5119256;28;20236;-71
2021/05/13 04:30:35;;;;;;;1.23;0.60;;;;;;;;;;5119019;28;20236;-70
2021/05/13 04:33:03;;;;;;;2.70;0.60;;;;;;;;;;5119328;28;20287;-70
2021/05/13 04:35:31;;;;;;;0.60;0.60;;;;;;;;;;5119030;28;20220;-71
2021/05/13 04:37:59;;;;;;;1.43;0.50;;;;;;;;;;5119251;28;20296;-70
2021/05/13 04:40:26;;;;;;;0.87;0.50;;;;;;;;;;5118897;27;20243;-71
2021/05/13 04:42:54;;;;;;;1.00;0.80;;;;;;;;;;5119066;28;20204;-71
2021/05/13 04:45:22;;;;;;;0.77;0.50;;;;;;;;;;5118528;28;20319;-70
2021/05/13 04:48:05;;;;;;;2.30;0.70;;;;;;;;;;5119000;28;20207;-71
2021/05/13 04:50:34;;;;;;;0.80;0.43;;;;;;;;;;5118914;28;20713;-70
2021/05/13 04:53:07;;;;;;;3.17;0.80;;;;;;;;;;5118810;28;20208;-70
2021/05/13 04:55:35;;;;;;;1.67;0.70;;;;;;;;;;5119249;28;20281;-70
2021/05/13 04:58:03;;;;;;;1.77;0.60;;;;;;;;;;5118923;28;20295;-71
2021/05/13 05:00:30;;;;;;;3.13;0.77;;;;;;;;;;5118642;28;20271;-71
2021/05/13 05:02:58;;;;;;;0.57;0.57;;;;;;;;;;5118964;28;20232;-70
2021/05/13 05:05:26;;;;;;;1.07;0.60;;;;;;;;;;5118664;28;20662;-70
2021/05/13 05:07:54;;;;;;;1.10;1.00;;;;;;;;;;5118788;28;20287;-71
2021/05/13 05:10:22;;;;;;;0.73;0.60;;;;;;;;;;5118765;28;20235;-70
2021/05/13 05:12:49;;;;;;;1.90;0.60;;;;;;;;;;5118126;28;20315;-71
2021/05/13 05:15:17;;;;;;;2.20;0.93;;;;;;;;;;5117946;28;20248;-70
2021/05/13 05:17:44;;;;;;;3.33;0.97;;;;;;;;;;5118581;28;20284;-70
2021/05/13 05:20:12;;;;;;;3.73;0.90;;;;;;;;;;5117929;28;20567;-70
2021/05/13 05:22:39;;;;;;;2.87;0.73;;;;;;;;;;5112684;28;20706;-71
2021/05/13 05:25:08;;;;;;;1.40;0.80;;;;;;;;;;5118075;28;20607;-70
2021/05/13 05:27:36;;;;;;;6.93;1.00;;;;;;;;;;5118380;28;20287;-70
2021/05/13 05:30:03;;;;;;;1.50;0.90;;;;;;;;;;5114687;28;20284;-69
2021/05/13 05:32:31;;;;;;;4.83;1.50;;;;;;;;;;5117425;28;20235;-70
2021/05/13 05:35:00;;;;;;;7.20;1.80;;;;;;;;;;5117460;28;20228;-69
2021/05/13 05:37:28;;;;;;;2.73;1.23;;;;;;;;;;5116408;28;20296;-69
2021/05/13 05:39:56;;;;;;;1.97;1.00;;;;;;;;;;5116441;28;20261;-68
2021/05/13 05:42:24;;;;;;;1.77;0.83;;;;;;;;;;5116132;28;20236;-69
2021/05/13 05:44:52;;;;;;;4.13;0.83;;;;;;;;;;5115350;28;20284;-68
2021/05/13 05:47:19;;;;;;;2.00;1.47;;;;;;;;;;5113819;28;20205;-69
2021/05/13 05:49:47;;;;;;;1.98;0.98;;;;;;;;;;5116094;28;20482;-65
2021/05/13 05:52:17;;;;;;;16.03;7.87;;;;;;;;;;5116422;28;20208;-71
2021/05/13 05:54:45;;;;;;;2.63;1.30;;;;;;;;;;5115136;28;20244;-71
2021/05/13 05:57:12;;;;;;;2.57;0.80;;;;;;;;;;5117455;28;20239;-71
2021/05/13 05:59:41;;;;;;;2.40;0.97;;;;;;;;;;5116811;28;20255;-69
2021/05/13 06:02:08;;;;;;;3.30;0.93;;;;;;;;;;5117231;28;20282;-70
2021/05/13 06:04:36;;;;;;;2.00;0.73;;;;;;;;;;5117144;28;20216;-68
2021/05/13 06:07:03;;;;;;;1.50;0.63;;;;;;;;;;5117201;28;20288;-69
2021/05/13 06:09:31;;;;;;;3.20;0.93;;;;;;;;;;5117024;28;20231;-69
2021/05/13 06:11:59;;;;;;;0.47;0.47;;;;;;;;;;5116962;28;20241;-69
2021/05/13 06:14:26;;;;;;;4.77;1.00;;;;;;;;;;5117568;28;20315;-69
2021/05/13 06:16:54;;;;;;;1.40;0.67;;;;;;;;;;5116670;28;20284;-70
2021/05/13 06:19:23;;;;;;;2.40;0.83;;;;;;;;;;5115291;28;20235;-70
2021/05/13 06:21:50;;;;;;;3.50;0.90;;;;;;;;;;5117077;28;20232;-70
2021/05/13 06:24:18;;;;;;;2.37;1.20;;;;;;;;;;5116221;28;20295;-69
2021/05/13 06:26:54;;;;;;;2.63;0.90;;;;;;;;;;5115977;28;20244;-70
2021/05/13 06:29:23;;;;;;;1.90;1.20;;;;;;;;;;5112124;28;20567;-70
2021/05/13 06:31:50;;;;;;;3.97;1.10;;;;;;;;;;5116965;28;20236;-71
2021/05/13 06:34:18;;;;;;;0.63;0.63;;;;;;;;;;5121385;28;20285;-70
2021/05/13 06:36:46;;;;;;;1.90;0.93;;;;;;;;;;5121067;28;20228;-69
2021/05/13 06:39:13;;;;;;;3.17;0.97;;;;;;;;;;5120902;28;20744;-69
2021/05/13 06:41:42;;;;;;;2.03;1.00;;;;;;;;;;5120876;28;20243;-70
2021/05/13 06:44:09;;;;;;;1.33;0.80;;;;;;;;;;5120773;28;20631;-70
2021/05/13 06:46:37;;;;;;;2.67;0.73;;;;;;;;;;5119985;28;20315;-70
2021/05/13 06:49:04;;;;;;;1.23;0.97;;;;;;;;;;5121031;28;20208;-70
2021/05/13 06:51:33;;;;;;;3.40;1.30;;;;;;;;;;5120664;28;20228;-70
2021/05/13 06:54:00;;;;;;;3.20;0.77;;;;;;;;;;5120873;28;20209;-70
2021/05/13 06:56:28;;;;;;;2.17;0.90;;;;;;;;;;5120782;28;20204;-71
2021/05/13 06:58:55;;;;;;;0.93;0.73;;;;;;;;;;5120891;28;20287;-69
2021/05/13 07:01:23;;;;;;;1.40;0.90;;;;;;;;;;5120020;28;20240;-69
2021/05/13 07:03:50;;;;;;;1.63;0.77;;;;;;;;;;5120132;28;20698;-70
2021/05/13 07:06:18;;;;;;;1.70;0.90;;;;;;;;;;5118856;28;20339;-71
2021/05/13 07:08:46;;;;;;;1.80;0.67;;;;;;;;;;5108142;28;20244;-68
2021/05/13 07:11:14;;;;;;;2.77;0.90;;;;;;;;;;5120331;28;20268;-71
2021/05/13 07:13:41;;;;;;;2.70;0.60;;;;;;;;;;5120376;28;20758;-70
2021/05/13 07:16:08;;;;;;;0.77;0.70;;;;;;;;;;5120041;28;20289;-70
2021/05/13 07:18:36;;;;;;;2.00;0.80;;;;;;;;;;5120575;28;20205;-71
2021/05/13 07:21:04;;;;;;;2.63;0.60;;;;;;;;;;5120460;27;20264;-71
2021/05/13 07:23:31;;;;;;;3.60;2.13;;;;;;;;;;5112324;28;20202;-71
2021/05/13 07:26:00;;;;;;;0.83;0.80;;;;;;;;;;5116166;28;20229;-71
2021/05/13 07:28:27;;;;;;;2.00;0.80;;;;;;;;;;5120283;28;20288;-70
2021/05/13 07:30:55;;;;;;;1.40;0.77;;;;;;;;;;5119631;28;20292;-70
2021/05/13 07:33:22;;;;;;;1.77;0.87;;;;;;;;;;5120008;28;20655;-71
2021/05/13 07:35:50;;;;;;;2.43;1.13;;;;;;;;;;5119750;28;20258;-70
2021/05/13 07:38:18;;;;;;;2.37;1.47;;;;;;;;;;5119386;28;20287;-70
2021/05/13 07:40:45;;;;;;;2.00;0.70;;;;;;;;;;5119758;28;20276;-70
2021/05/13 07:43:14;;;;;;;0.87;0.77;;;;;;;;;;5119241;28;20272;-70
2021/05/13 07:45:44;;;;;;;2.10;0.83;;;;;;;;;;5117720;27;20283;-70
2021/05/13 07:48:12;;;;;;;2.53;0.80;;;;;;;;;;5119293;28;20197;-69
2021/05/13 07:50:39;;;;;;;0.60;0.60;;;;;;;;;;5119304;28;20288;-70
2021/05/13 07:53:07;;;;;;;1.47;0.90;;;;;;;;;;5119129;28;20236;-70
2021/05/13 07:55:35;;;;;;;0.60;0.60;;;;;;;;;;5119645;28;20316;-70
2021/05/13 07:58:02;;;;;;;4.87;0.87;;;;;;;;;;5119211;28;20672;-69
2021/05/13 08:00:31;;;;;;;1.67;0.93;;;;;;;;;;5118585;28;20682;-70
2021/05/13 08:02:58;;;;;;;1.30;0.80;;;;;;;;;;5118941;28;20219;-70
2021/05/13 08:05:26;;;;;;;3.30;0.80;;;;;;;;;;5118876;28;20220;-71
2021/05/13 08:07:53;;;;;;;2.83;0.80;;;;;;;;;;5119046;28;20243;-70
2021/05/13 08:10:21;;;;;;;1.87;0.63;;;;;;;;;;5124387;27;20224;-71
2021/05/13 08:12:48;;;;;;;1.07;0.80;;;;;;;;;;5120117;27;20319;-70
2021/05/13 08:15:16;;;;;;;1.70;0.60;;;;;;;;;;5118336;28;20251;-69
2021/05/13 08:17:44;;;;;;;2.30;0.57;;;;;;;;;;5116324;28;20643;-70
2021/05/13 08:20:13;;;;;;;0.77;0.60;;;;;;;;;;5117562;28;20232;-70
2021/05/13 08:22:41;;;;;;;1.23;0.70;;;;;;;;;;5121522;27;20316;-71
2021/05/13 08:25:09;;;;;;;0.63;0.60;;;;;;;;;;5125988;27;20312;-72
2021/05/13 08:27:38;;;;;;;1.90;0.60;;;;;;;;;;5120944;27;20240;-71
2021/05/13 08:30:08;;;;;;;1.77;0.97;;;;;;;;;;5110410;28;20212;-70
2021/05/13 08:32:35;;;;;;;1.90;0.90;;;;;;;;;;5115052;28;20266;-71
2021/05/13 08:35:04;;;;;;;1.03;0.87;;;;;;;;;;5118433;28;20225;-70
2021/05/13 08:37:32;;;;;;;2.47;1.00;;;;;;;;;;5118855;28;20279;-70
2021/05/13 08:40:00;;;;;;;1.67;0.70;;;;;;;;;;5118444;28;20243;-71
2021/05/13 08:42:27;;;;;;;2.27;0.80;;;;;;;;;;5123745;27;20275;-71
2021/05/13 08:44:55;;;;;;;1.53;0.73;;;;;;;;;;5116596;28;20280;-72
2021/05/13 08:47:23;;;;;;;2.30;0.90;;;;;;;;;;5116986;27;20319;-71
2021/05/13 08:49:50;;;;;;;0.83;0.83;;;;;;;;;;5118693;27;20211;-70
2021/05/13 08:52:20;;;;;;;2.13;0.97;;;;;;;;;;5118164;28;20228;-71
2021/05/13 08:54:50;;;;;;;1.03;0.60;;;;;;;;;;5115703;28;20256;-71
2021/05/13 08:57:18;;;;;;;2.00;0.83;;;;;;;;;;5118548;28;20201;-71
2021/05/13 08:59:45;;;;;;;8.33;1.30;;;;;;;;;;5110447;28;20293;-70
2021/05/13 09:02:14;;;;;;;1.70;0.90;;;;;;;;;;5117559;28;20239;-71
2021/05/13 09:04:42;;;;;;;1.00;0.77;;;;;;;;;;5117497;28;20223;-71
2021/05/13 09:07:16;;;;;;;0.57;0.57;;;;;;;;;;5115456;28;20217;-72
2021/05/13 09:10:01;;;;;;;0.67;0.50;;;;;;;;;;5118121;28;20228;-70
2021/05/13 09:12:29;;;;;;;0.93;0.67;;;;;;;;;;5117002;28;20264;-70
2021/05/13 09:14:58;;;;;;;1.20;1.10;;;;;;;;;;5118093;28;20584;-71
2021/05/13 09:17:26;;;;;;;4.20;1.20;;;;;;;;;;5118136;28;20238;-71
2021/05/13 09:19:55;;;;;;;2.10;0.77;;;;;;;;;;5116387;28;20197;-71
2021/05/13 09:22:24;;;;;;;0.83;0.70;;;;;;;;;;5117908;28;20205;-71
2021/05/13 09:24:52;;;;;;;2.27;0.70;;;;;;;;;;5117309;28;20248;-70
2021/05/13 09:27:22;;;;;;;3.30;1.00;;;;;;;;;;5117431;28;20251;-71
2021/05/13 09:30:00;;;;;;;0.97;0.80;;;;;;;;;;5117009;28;20284;-71
2021/05/13 09:32:28;;;;;;;2.60;0.93;;;;;;;;;;5117964;28;20197;-71
2021/05/13 09:34:56;;;;;;;2.03;0.93;;;;;;;;;;5115695;28;20231;-70
2021/05/13 09:37:35;;;;;;;2.43;0.83;;;;;;;;;;5117375;28;20205;-71
2021/05/13 09:40:03;;;;;;;1.17;0.60;;;;;;;;;;5116841;28;20694;-70
2021/05/13 09:42:32;;;;;;;3.33;1.00;;;;;;;;;;5120198;28;20636;-70
2021/05/13 09:44:59;;;;;;;1.47;0.70;;;;;;;;;;5122981;28;20299;-70
2021/05/13 09:47:27;;;;;;;3.17;0.60;;;;;;;;;;5125019;27;20749;-69
2021/05/13 09:49:56;;;;;;;2.60;0.93;;;;;;;;;;5124856;28;20614;-69
2021/05/13 09:52:36;;;;;;;0.70;0.70;;;;;;;;;;5126231;27;20264;-70
2021/05/13 09:55:11;;;;;;;1.90;0.90;;;;;;;;;;5123848;28;20250;-70
2021/05/13 09:57:41;;;;;;;3.20;1.33;;;;;;;;;;5121759;27;20203;-69
2021/05/13 10:00:10;;;;;;;1.17;0.80;;;;;;;;;;5127081;28;20227;-69
2021/05/13 10:02:38;;;;;;;4.80;1.00;;;;;;;;;;5125013;28;20279;-69
2021/05/13 10:05:06;;;;;;;1.17;0.70;;;;;;;;;;5117715;28;20711;-70
2021/05/13 10:07:34;;;;;;;1.73;0.90;;;;;;;;;;5127832;27;20259;-70
2021/05/13 10:10:06;;;;;;;1.53;0.60;;;;;;;;;;5131131;27;20200;-70
2021/05/13 10:12:33;;;;;;;2.87;0.80;;;;;;;;;;5128934;27;20688;-70
2021/05/13 10:15:03;;;;;;;1.23;0.60;;;;;;;;;;5121460;27;20247;-68
2021/05/13 10:17:31;;;;;;;3.10;0.77;;;;;;;;;;5126630;27;20885;-68
2021/05/13 10:20:00;;;;;;;1.50;0.70;;;;;;;;;;5130640;27;20205;-67
2021/05/13 10:22:27;;;;;;;1.07;0.70;;;;;;;;;;5130306;27;20228;-69
2021/05/13 10:25:17;;;;;;;1.20;0.90;;;;;;;;;;5128113;27;20642;-68
2021/05/13 10:27:48;;;;;;;1.00;0.73;;;;;;;;;;5131212;27;20255;-70
2021/05/13 10:30:20;;;;;;;0.87;0.70;;;;;;;;;;5129855;27;20283;-70
2021/05/13 10:33:06;;;;;;;2.00;0.67;;;;;;;;;;5127115;27;20200;-68
2021/05/13 10:35:34;;;;;;;0.50;0.50;;;;;;;;;;5127275;27;20718;-71
2021/05/13 10:38:05;;;;;;;1.67;0.63;;;;;;;;;;5126852;27;20196;-70
2021/05/13 10:40:49;;;;;;;3.13;1.07;;;;;;;;;;5127397;27;20663;-68
2021/05/13 10:43:25;;;;;;;0.70;0.70;;;;;;;;;;5128135;27;20211;-68
2021/05/13 10:45:53;;;;;;;0.50;0.50;;;;;;;;;;5125641;27;20212;-69
2021/05/13 10:48:22;;;;;;;0.87;0.63;;;;;;;;;;5129928;27;20311;-68
2021/05/13 10:50:52;;;;;;;1.87;0.50;;;;;;;;;;5123931;27;20674;-70
2021/05/13 10:53:39;;;;;;;4.37;2.80;;;;;;;;;;5128034;27;20228;-70
2021/05/13 10:56:11;;;;;;;0.93;0.40;;;;;;;;;;5124894;27;20258;-71
2021/05/13 10:58:59;;;;;;;1.13;0.63;;;;;;;;;;5128688;27;20209;-70
2021/05/13 11:01:35;;;;;;;1.03;0.73;;;;;;;;;;5126399;27;20227;-70
2021/05/13 11:04:34;;;;;;;1.03;0.40;;;;;;;;;;5123208;27;20550;-70
2021/05/13 11:07:03;;;;;;;0.60;0.60;;;;;;;;;;5128444;27;20703;-70
2021/05/13 11:09:50;;;;;;;2.10;0.63;;;;;;;;;;5129046;27;20667;-68
2021/05/13 11:12:18;;;;;;;1.03;0.70;;;;;;;;;;5129669;27;20236;-69
2021/05/13 11:15:06;;;;;;;1.17;0.70;;;;;;;;;;5123905;27;20224;-69
2021/05/13 11:17:54;;;;;;;1.90;0.50;;;;;;;;;;5128299;27;20231;-67
2021/05/13 11:20:24;;;;;;;2.10;0.60;;;;;;;;;;5129678;27;20203;-68
2021/05/13 11:22:52;;;;;;;0.60;0.50;;;;;;;;;;5127790;27;20248;-68
2021/05/13 11:25:19;;;;;;;2.00;0.50;;;;;;;;;;5127610;27;20224;-69
2021/05/13 11:27:47;;;;;;;1.50;0.60;;;;;;;;;;5127942;27;20224;-70
2021/05/13 11:30:15;;;;;;;2.03;0.60;;;;;;;;;;5126422;27;20212;-69
2021/05/13 11:32:43;;;;;;;1.30;0.60;;;;;;;;;;5115542;27;20197;-70
2021/05/13 11:35:10;;;;;;;0.87;0.70;;;;;;;;;;5119994;27;20311;-70
2021/05/13 11:37:40;;;;;;;1.70;0.67;;;;;;;;;;5124896;27;20235;-71
2021/05/13 11:40:16;;;;;;;1.47;0.67;;;;;;;;;;5121669;27;20193;-72
2021/05/13 11:42:44;;;;;;;1.40;0.60;;;;;;;;;;5118721;27;20208;-72
2021/05/13 11:45:15;;;;;;;0.40;0.40;;;;;;;;;;5119259;27;20235;-71
2021/05/13 11:47:43;;;;;;;0.50;0.50;;;;;;;;;;5121910;27;20226;-72
2021/05/13 11:50:24;;;;;;;1.60;0.80;;;;;;;;;;5128593;27;20227;-72
2021/05/13 11:53:05;;;;;;;3.00;1.10;;;;;;;;;;5127216;27;20290;-72
2021/05/13 11:55:32;;;;;;;8.47;5.23;;;;;;;;;;5121310;27;20311;-71
2021/05/13 11:58:00;;;;;;;2.13;1.30;;;;;;;;;;5122992;27;20271;-72
2021/05/13 12:00:27;;;;;;;1.87;0.83;;;;;;;;;;5126115;27;20680;-71
2021/05/13 12:03:14;;;;;;;1.17;0.93;;;;;;;;;;5127178;27;20240;-72
2021/05/13 12:05:46;;;;;;;1.33;0.70;;;;;;;;;;5118166;28;20259;-71
2021/05/13 12:08:15;;;;;;;0.60;0.60;;;;;;;;;;5120058;28;21413;-73
2021/05/13 12:10:43;;;;;;;2.83;0.90;;;;;;;;;;5114957;28;20238;-71
2021/05/13 12:13:11;;;;;;;1.23;0.63;;;;;;;;;;5117126;27;20284;-70
2021/05/13 12:15:38;;;;;;;2.00;0.80;;;;;;;;;;5115622;28;20252;-72
2021/05/13 12:18:07;;;;;;;0.40;0.40;;;;;;;;;;5116461;27;20250;-72
2021/05/13 12:20:36;;;;;;;0.80;0.80;;;;;;;;;;5118903;28;20664;-72
2021/05/13 12:23:04;;;;;;;0.57;0.57;;;;;;;;;;5116329;28;20208;-73
2021/05/13 12:25:33;;;;;;;1.03;0.70;;;;;;;;;;5118099;27;20691;-73
2021/05/13 12:28:01;;;;;;;0.93;0.50;;;;;;;;;;5118920;27;20256;-73
2021/05/13 12:30:29;;;;;;;0.80;0.80;;;;;;;;;;5115859;28;20219;-74
2021/05/13 12:32:56;;;;;;;0.80;0.60;;;;;;;;;;5108579;28;20201;-71
2021/05/13 12:35:25;;;;;;;1.10;0.60;;;;;;;;;;5110689;28;20625;-72
2021/05/13 12:37:53;;;;;;;1.50;0.63;;;;;;;;;;5119816;28;20223;-71
2021/05/13 12:40:25;;;;;;;1.57;0.60;;;;;;;;;;5112236;28;20202;-72
2021/05/13 12:45:49;;;;;;;1.03;0.43;;;;;;;;;;5145708;27;20904;-71
2021/05/13 12:48:23;;;;;;;1.80;0.90;;;;;;;;;;5117785;27;20236;-71
2021/05/13 12:50:57;;;;;;;0.87;0.50;;;;;;;;;;5115164;28;20215;-71
2021/05/13 12:53:25;;;;;;;0.80;0.60;;;;;;;;;;5115485;28;20231;-71
2021/05/13 12:55:53;;;;;;;2.17;0.83;;;;;;;;;;5121951;28;20256;-70
2021/05/13 12:58:21;;;;;;;0.77;0.60;;;;;;;;;;5119884;28;20287;-70
2021/05/13 13:00:53;;;;;;;0.73;0.60;;;;;;;;;;5135419;27;20208;-71
2021/05/13 13:03:28;;;;;;;1.00;0.60;;;;;;;;;;5126883;28;20196;-70
2021/05/13 13:06:06;;;;;;;0.43;0.43;;;;;;;;;;5134731;27;20247;-70
2021/05/13 13:08:41;;;;;;;1.27;0.50;;;;;;;;;;5135711;27;20204;-71
2021/05/13 13:11:09;;;;;;;1.37;0.70;;;;;;;;;;5115170;27;20234;-71
2021/05/13 13:13:43;;;;;;;0.43;0.43;;;;;;;;;;5114625;28;20295;-70
2021/05/13 13:16:19;;;;;;;0.80;0.53;;;;;;;;;;5133239;28;20287;-71
2021/05/13 13:18:47;;;;;;;1.43;0.70;;;;;;;;;;5135524;27;20215;-69
2021/05/13 13:21:16;;;;;;;1.20;0.70;;;;;;;;;;5133754;27;20291;-70
2021/05/13 13:23:45;;;;;;;0.40;0.40;;;;;;;;;;5134402;27;20208;-70
2021/05/13 13:26:16;;;;;;;0.57;0.50;;;;;;;;;;5133263;27;20284;-70
2021/05/13 13:28:44;;;;;;;0.70;0.40;;;;;;;;;;5135409;27;20204;-71
2021/05/13 13:31:14;;;;;;;0.80;0.47;;;;;;;;;;5115500;27;20231;-71
2021/05/13 13:33:44;;;;;;;0.30;0.30;;;;;;;;;;5129754;28;20226;-72
2021/05/13 13:36:12;;;;;;;0.83;0.40;;;;;;;;;;5131067;27;20258;-70
2021/05/13 13:38:40;;;;;;;3.87;0.60;;;;;;;;;;5134543;27;20588;-70
2021/05/13 13:41:08;;;;;;;1.30;0.40;;;;;;;;;;5127881;27;20276;-72
2021/05/13 13:43:36;;;;;;;0.47;0.47;;;;;;;;;;5134495;27;20196;-71
2021/05/13 13:46:04;;;;;;;2.47;1.57;;;;;;;;;;5129838;27;20224;-71
2021/05/13 13:48:31;;;;;;;1.60;1.30;;;;;;;;;;5133193;27;20295;-72
2021/05/13 13:51:00;;;;;;;2.50;1.37;;;;;;;;;;5131636;27;20291;-72
2021/05/13 13:53:29;;;;;;;2.10;0.83;;;;;;;;;;5134722;27;20232;-72
2021/05/13 13:55:57;;;;;;;0.40;0.40;;;;;;;;;;5118695;27;20249;-73
2021/05/13 13:58:25;;;;;;;0.60;0.40;;;;;;;;;;5110762;28;22123;-72
2021/05/13 14:00:52;;;;;;;1.60;0.60;;;;;;;;;;5110291;28;20261;-72
2021/05/13 14:03:20;;;;;;;1.37;1.17;;;;;;;;;;5111195;28;20228;-73
2021/05/13 14:05:48;;;;;;;0.60;0.60;;;;;;;;;;5108790;28;20643;-72
2021/05/13 14:08:16;;;;;;;2.20;0.60;;;;;;;;;;5108951;28;20197;-72
2021/05/13 14:10:47;;;;;;;1.60;0.67;;;;;;;;;;5108663;28;20865;-73
2021/05/13 14:13:15;;;;;;;0.70;0.40;;;;;;;;;;5109830;28;20626;-73
2021/05/13 14:15:43;;;;;;;0.37;0.30;;;;;;;;;;5108586;28;20213;-73
2021/05/13 14:18:11;;;;;;;0.43;0.43;;;;;;;;;;5110379;28;20255;-72
2021/05/13 14:20:38;;;;;;;1.07;0.70;;;;;;;;;;5107049;28;20671;-72
2021/05/13 14:23:06;;;;;;;1.73;0.70;;;;;;;;;;5109172;28;20201;-73
2021/05/13 14:25:34;;;;;;;3.73;0.70;;;;;;;;;;5106625;28;20220;-72
2021/05/13 14:28:02;;;;;;;0.83;0.53;;;;;;;;;;5110841;28;20830;-71
2021/05/13 14:30:30;;;;;;;0.97;0.60;;;;;;;;;;5110316;28;20651;-72
2021/05/13 14:32:57;;;;;;;1.73;0.40;;;;;;;;;;5097581;28;20193;-71
2021/05/13 14:35:26;;;;;;;0.60;0.60;;;;;;;;;;5115288;28;20212;-71
2021/05/13 14:37:55;;;;;;;0.60;0.60;;;;;;;;;;5106315;28;20205;-69
2021/05/13 14:40:22;;;;;;;0.50;0.50;;;;;;;;;;5099585;28;20268;-71
2021/05/13 14:42:52;;;;;;;0.40;0.40;;;;;;;;;;5114083;28;20296;-71
2021/05/13 14:45:19;;;;;;;0.63;0.63;;;;;;;;;;5111492;27;20780;-71
2021/05/13 14:47:54;;;;;;;0.40;0.40;;;;;;;;;;5099494;28;20284;-71
2021/05/13 14:50:24;;;;;;;0.53;0.47;;;;;;;;;;5101575;28;20625;-70
2021/05/13 14:52:52;;;;;;;0.60;0.60;;;;;;;;;;5099611;28;20202;-71
2021/05/13 14:55:20;;;;;;;0.70;0.70;;;;;;;;;;5102853;28;20670;-71
2021/05/13 14:57:49;;;;;;;0.93;0.77;;;;;;;;;;5118362;28;20729;-70